createdAt,value
2022-12-25T00:04:00.492Z,17.29
2022-12-25T00:09:00.280Z,17.51
2022-12-25T00:14:00.250Z,17.29
2022-12-25T00:19:00.227Z,17.56
2022-12-25T00:24:00.223Z,17.51
2022-12-25T00:29:00.192Z,17.51
2022-12-25T00:34:00.131Z,17.29
2022-12-25T00:39:00.117Z,17.62
2022-12-25T00:44:00.084Z,17.35
2022-12-25T00:49:00.033Z,17.51
2022-12-25T00:54:00.049Z,17.51
2022-12-25T00:59:00.048Z,17.29
2022-12-25T01:03:59.972Z,16.92
2022-12-25T01:08:59.910Z,17.51
2022-12-25T01:13:59.903Z,17.13
2022-12-25T01:18:59.895Z,17.08
2022-12-25T01:23:59.884Z,17.51
2022-12-25T01:28:59.847Z,17.51
2022-12-25T01:33:59.841Z,17.08
2022-12-25T01:38:59.809Z,16.92
2022-12-25T01:43:59.754Z,17.46
2022-12-25T01:48:59.736Z,17.51
2022-12-25T01:53:59.732Z,17.13
2022-12-25T01:58:59.699Z,16.87
2022-12-25T02:03:59.669Z,16.87
2022-12-25T02:08:59.636Z,16.87
2022-12-25T02:13:59.629Z,16.92
2022-12-25T02:18:59.584Z,17.08
2022-12-25T02:23:59.547Z,17.08
2022-12-25T02:28:59.502Z,16.92
2022-12-25T02:33:59.463Z,17.03
2022-12-25T02:38:59.423Z,16.70
2022-12-25T02:43:59.374Z,16.92
2022-12-25T02:48:59.316Z,16.87
2022-12-25T02:53:59.315Z,17.08
2022-12-25T02:58:59.261Z,16.92
2022-12-25T03:03:59.261Z,16.76
2022-12-25T03:08:59.195Z,17.13
2022-12-25T03:13:59.178Z,16.87
2022-12-25T03:18:59.173Z,17.08
2022-12-25T03:23:59.180Z,16.81
2022-12-25T03:28:59.127Z,16.76
2022-12-25T03:33:59.119Z,17.08
2022-12-25T03:38:59.093Z,16.65
2022-12-25T03:43:59.079Z,16.92
2022-12-25T03:48:59.076Z,16.87
2022-12-25T03:53:59.076Z,17.13
2022-12-25T03:58:59.047Z,16.76
2022-12-25T04:03:59.033Z,16.70
2022-12-25T04:08:59.005Z,17.19
2022-12-25T04:13:58.973Z,16.70
2022-12-25T04:18:58.947Z,16.70
2022-12-25T04:23:58.914Z,16.87
2022-12-25T04:28:58.887Z,16.92
2022-12-25T04:33:58.869Z,16.65
2022-12-25T04:38:58.838Z,16.65
2022-12-25T04:43:58.804Z,16.70
2022-12-25T04:48:58.777Z,16.70
2022-12-25T04:53:58.733Z,16.87
2022-12-25T04:58:58.698Z,16.76
2022-12-25T05:03:58.723Z,16.70
2022-12-25T05:08:58.612Z,16.49
2022-12-25T05:13:58.585Z,16.92
2022-12-25T05:18:58.547Z,16.76
2022-12-25T05:23:58.520Z,16.81
2022-12-25T05:28:58.491Z,16.49
2022-12-25T05:33:58.468Z,16.65
2022-12-25T05:38:58.435Z,16.70
2022-12-25T05:43:58.413Z,16.70
2022-12-25T05:48:58.340Z,16.60
2022-12-25T05:53:58.305Z,16.65
2022-12-25T05:58:58.285Z,16.76
2022-12-25T06:03:58.358Z,16.65
2022-12-25T06:08:58.217Z,16.54
2022-12-25T06:13:58.189Z,16.65
2022-12-25T06:18:58.171Z,16.81
2022-12-25T06:23:58.194Z,16.60
2022-12-25T06:28:58.094Z,16.49
2022-12-25T06:33:58.038Z,16.54
2022-12-25T06:38:57.989Z,16.54
2022-12-25T06:43:57.967Z,16.54
2022-12-25T06:48:57.937Z,16.81
2022-12-25T06:53:57.893Z,16.54
2022-12-25T06:58:57.863Z,16.70
2022-12-25T07:03:57.844Z,16.49
2022-12-25T07:08:57.827Z,16.65
2022-12-25T07:13:57.816Z,16.76
2022-12-25T07:18:57.750Z,16.60
2022-12-25T07:23:57.713Z,16.70
2022-12-25T07:28:57.665Z,16.70
2022-12-25T07:33:57.643Z,16.33
2022-12-25T07:38:57.590Z,16.22
2022-12-25T07:43:57.560Z,16.11
2022-12-25T07:48:57.537Z,16.17
2022-12-25T07:53:57.504Z,16.49
2022-12-25T07:58:57.491Z,16.33
2022-12-25T08:03:57.582Z,16.49
2022-12-25T08:08:57.431Z,16.33
2022-12-25T08:13:57.407Z,16.38
2022-12-25T08:18:57.345Z,16.76
2022-12-25T08:23:57.346Z,16.54
2022-12-25T08:28:57.308Z,16.11
2022-12-25T08:33:57.304Z,16.70
2022-12-25T08:39:02.788Z,16.65
2022-12-25T08:43:57.209Z,16.11
2022-12-25T08:48:57.190Z,16.70
2022-12-25T08:53:57.140Z,16.11
2022-12-25T08:58:57.116Z,16.22
2022-12-25T09:03:57.094Z,16.01
2022-12-25T09:08:57.063Z,16.33
2022-12-25T09:13:57.040Z,16.27
2022-12-25T09:18:57.012Z,16.11
2022-12-25T09:23:56.954Z,16.54
2022-12-25T09:28:56.922Z,16.22
2022-12-25T09:33:56.906Z,16.17
2022-12-25T09:38:56.868Z,16.27
2022-12-25T09:43:56.836Z,16.11
2022-12-25T09:48:56.805Z,16.33
2022-12-25T09:53:56.768Z,16.27
2022-12-25T09:58:56.755Z,16.11
2022-12-25T10:03:56.823Z,16.11
2022-12-25T10:08:56.711Z,16.01
2022-12-25T10:13:56.706Z,16.06
2022-12-25T10:18:56.651Z,16.11
2022-12-25T10:23:56.628Z,16.27
2022-12-25T10:28:56.607Z,16.11
2022-12-25T10:33:56.573Z,16.06
2022-12-25T10:38:56.546Z,16.11
2022-12-25T10:43:56.502Z,15.95
2022-12-25T10:48:56.459Z,16.27
2022-12-25T10:53:56.421Z,16.11
2022-12-25T10:58:56.383Z,16.06
2022-12-25T11:03:56.338Z,16.33
2022-12-25T11:08:56.303Z,15.90
2022-12-25T11:13:56.266Z,16.11
2022-12-25T11:18:56.256Z,16.11
2022-12-25T11:23:56.198Z,16.38
2022-12-25T11:28:56.198Z,16.27
2022-12-25T11:33:56.157Z,16.33
2022-12-25T11:38:56.115Z,16.33
2022-12-25T11:43:56.059Z,15.95
2022-12-25T11:48:56.021Z,15.95
2022-12-25T11:53:56.010Z,15.90
2022-12-25T11:58:55.981Z,15.90
2022-12-25T12:03:55.994Z,16.27
2022-12-25T12:08:55.951Z,16.06
2022-12-25T12:13:55.872Z,16.17
2022-12-25T12:18:55.880Z,16.33
2022-12-25T12:23:55.813Z,16.06
2022-12-25T12:28:55.811Z,15.63
2022-12-25T12:33:55.801Z,16.27
2022-12-25T12:38:55.759Z,16.11
2022-12-25T12:43:55.720Z,16.06
2022-12-25T12:48:55.709Z,15.95
2022-12-25T12:53:55.665Z,15.90
2022-12-25T12:58:55.668Z,15.95
2022-12-25T13:03:55.573Z,16.11
2022-12-25T13:08:55.585Z,16.06
2022-12-25T13:13:55.506Z,16.11
2022-12-25T13:18:55.516Z,16.17
2022-12-25T13:23:55.487Z,16.06
2022-12-25T13:28:55.496Z,16.11
2022-12-25T13:33:55.445Z,16.01
2022-12-25T13:38:55.418Z,16.17
2022-12-25T13:43:55.358Z,16.01
2022-12-25T13:48:55.317Z,15.95
2022-12-25T13:53:55.317Z,15.95
2022-12-25T13:58:55.261Z,15.90
2022-12-25T14:03:55.195Z,16.11
2022-12-25T14:08:55.213Z,16.11
2022-12-25T14:13:55.115Z,15.63
2022-12-25T14:18:55.174Z,15.52
2022-12-25T14:23:55.101Z,16.11
2022-12-25T14:28:55.061Z,15.74
2022-12-25T14:33:55.027Z,16.11
2022-12-25T14:38:54.982Z,15.95
2022-12-25T14:43:54.951Z,15.52
2022-12-25T14:48:54.917Z,16.11
2022-12-25T14:53:54.900Z,15.52
2022-12-25T14:58:54.836Z,15.74
2022-12-25T15:03:54.861Z,15.58
2022-12-25T15:08:54.793Z,15.47
2022-12-25T15:13:54.751Z,16.11
2022-12-25T15:18:54.735Z,15.58
2022-12-25T15:23:54.669Z,15.90
2022-12-25T15:28:54.670Z,15.95
2022-12-25T15:33:54.598Z,15.52
2022-12-25T15:38:54.562Z,15.95
2022-12-25T15:43:54.549Z,15.74
2022-12-25T15:48:54.524Z,15.63
2022-12-25T15:53:54.477Z,15.63
2022-12-25T15:58:54.455Z,15.90
2022-12-25T16:03:54.539Z,15.84
2022-12-25T16:08:54.385Z,16.01
2022-12-25T16:13:54.341Z,15.90
2022-12-25T16:18:54.305Z,15.95
2022-12-25T16:23:54.277Z,15.90
2022-12-25T16:28:54.256Z,16.11
2022-12-25T16:33:54.243Z,16.11
2022-12-25T16:38:54.225Z,16.33
2022-12-25T16:43:54.211Z,16.17
2022-12-25T16:48:54.202Z,16.06
2022-12-25T16:53:54.148Z,16.17
2022-12-25T16:58:54.128Z,16.33
2022-12-25T17:03:54.210Z,16.33
2022-12-25T17:08:54.052Z,16.27
2022-12-25T17:13:54.003Z,16.65
2022-12-25T17:18:54.004Z,16.76
2022-12-25T17:23:58.171Z,16.81
2022-12-25T17:28:53.950Z,16.81
2022-12-25T17:33:53.895Z,16.81
2022-12-25T17:38:53.877Z,16.70
2022-12-25T17:43:53.861Z,16.92
2022-12-25T17:48:53.849Z,16.92
2022-12-25T17:53:53.829Z,17.51
2022-12-25T17:58:53.842Z,17.78
2022-12-25T18:03:53.824Z,17.72
2022-12-25T18:08:53.791Z,17.89
2022-12-25T18:13:53.761Z,18.10
2022-12-25T18:18:53.722Z,18.48
2022-12-25T18:23:53.728Z,18.15
2022-12-25T18:28:53.763Z,18.26
2022-12-25T18:33:53.587Z,18.15
2022-12-25T18:38:53.600Z,18.10
2022-12-25T18:43:55.781Z,18.42
2022-12-25T18:48:53.545Z,18.48
2022-12-25T18:53:53.493Z,18.32
2022-12-25T18:58:53.508Z,18.21
2022-12-25T19:03:58.644Z,18.69
2022-12-25T19:08:53.434Z,18.85
2022-12-25T19:13:53.449Z,18.48
2022-12-25T19:18:53.407Z,18.69
2022-12-25T19:23:53.332Z,18.64
2022-12-25T19:28:53.341Z,18.80
2022-12-25T19:33:53.295Z,18.75
2022-12-25T19:38:53.329Z,18.69
2022-12-25T19:43:53.264Z,18.75
2022-12-25T19:48:53.307Z,18.91
2022-12-25T19:53:53.225Z,18.37
2022-12-25T19:58:53.194Z,18.64
2022-12-25T20:03:53.191Z,18.85
2022-12-25T20:08:53.137Z,18.91
2022-12-25T20:13:53.099Z,18.69
2022-12-25T20:18:53.091Z,18.69
2022-12-25T20:23:53.069Z,18.69
2022-12-25T20:28:53.054Z,18.26
2022-12-25T20:33:53.032Z,18.32
2022-12-25T20:38:52.975Z,18.85
2022-12-25T20:43:52.983Z,18.69
2022-12-25T20:48:53.261Z,18.32
2022-12-25T20:53:52.892Z,18.48
2022-12-25T20:58:52.878Z,18.37
2022-12-25T21:03:53.000Z,18.32
2022-12-25T21:08:52.817Z,18.21
2022-12-25T21:13:52.733Z,18.48
2022-12-25T21:18:52.710Z,18.26
2022-12-25T21:23:52.678Z,18.53
2022-12-25T21:28:52.641Z,18.05
2022-12-25T21:33:53.063Z,18.10
2022-12-25T21:38:52.551Z,18.32
2022-12-25T21:43:52.520Z,18.26
2022-12-25T21:48:52.496Z,18.21
2022-12-25T21:53:52.443Z,17.72
2022-12-25T21:58:52.461Z,17.72
2022-12-25T22:03:52.407Z,18.32
2022-12-25T22:08:52.379Z,17.89
2022-12-25T22:13:52.360Z,17.72
2022-12-25T22:18:52.295Z,18.32
2022-12-25T22:23:52.276Z,18.21
2022-12-25T22:28:52.263Z,17.94
2022-12-25T22:33:52.231Z,17.72
2022-12-25T22:38:52.192Z,17.72
2022-12-25T22:44:16.455Z,17.72
2022-12-25T22:48:52.146Z,17.89
2022-12-25T22:53:52.114Z,17.94
2022-12-25T22:58:52.121Z,17.67
2022-12-25T23:03:52.165Z,18.32
2022-12-25T23:08:52.063Z,17.89
2022-12-25T23:13:52.030Z,17.83
2022-12-25T23:18:52.006Z,17.46
2022-12-25T23:23:51.995Z,17.89
2022-12-25T23:28:51.960Z,17.94
2022-12-25T23:33:51.988Z,17.78
2022-12-25T23:38:51.936Z,17.94
2022-12-25T23:43:51.885Z,17.72
2022-12-25T23:48:51.869Z,17.72
2022-12-25T23:53:51.837Z,17.89
2022-12-25T23:58:51.961Z,17.89
